Florence, MT (59833)

5:18 PM MDT on September 19, 2014 (GMT -0600)
MPG Ranch - South Baldy Ridge | Change Station
CLOSE
Current Station
Personal Weather Station
Location: Florence, MT
Elevation: 4911 ft
Nearby Weather Stations

Elev 4911 ft 46.69 °N, 113.99 °W | Updated 3 minutes ago

Overcast
Overcast
60.7 °F
Feels Like 60.7 °F
N
19.0
Wind Variable Wind from NW
Gusts 30.0 mph

Today
High -- | Low -- °F
--% Chance of Precip.
Yesterday
High -- | Low -- °F
Precip. -- in
7:19 AM 7:39 PM
Waning Crescent, 16% visible
Pressure 30.02 in
Visibility 10.0 miles
Clouds Overcast 6500 ft
Dew Point 43 °F
Humidity 53%
Rainfall 0.00 in
Snow Depth 0 in , 0 in , 0 in
UV 1 out of 12
Pollen 6.40 out of 12
Air Quality Not available.
Flu Activity Not available.
METAR KMSO 192253Z 30009KT 10SM OVC065 22/06 A3007 RMK AO2 SLP166 T02170061

More Conditions Fewer Conditions

Pressure 30.02 in
Visibility 10.0 miles
Clouds Overcast 6500 ft
Dew Point 43 °F
Humidity 53%
Rainfall 0.00 in
Snow Depth 0 in , 0 in , 0 in
UV 1 out of 12
Pollen 6.40 out of 12
Air Quality Not available.
Flu Activity Not available.
METAR KMSO 192253Z 30009KT 10SM OVC065 22/06 A3007 RMK AO2 SLP166 T02170061

More Conditions Fewer Conditions

10-Day Weather Forecast

Almanac

Astronomy

Sep. 19, 2014 Rise Set
Actual Time 7:19 AM MDT 7:39 PM MDT
Civil Twilight 6:49 AM MDT 8:09 PM MDT
Nautical Twilight 6:13 AM MDT 8:45 PM MDT
Astronomical Twilight 5:36 AM MDT 9:22 PM MDT
Moon 2:56 AM MDT 5:21 PM MDT
Length of Visible Light 13h 20m
Length of Day
12h 20m
Tomorrow will be 3m 17s shorter.
Waning Crescent, 16% of the Moon is Illuminated
Today
Waning Crescent
Sep 24
New
Oct 1
First Quarter
Oct 8
Full
Oct 15
Last Quarter

Today's Extremes

State Highs State Lows

Community

WunderPhotos

Upload Photos

1,754,724 photos uploaded!

Nearby

Snow Depth

Station Depth Elevation
Crystal Lake 0 in 6050 ft
Nevada Ridge 0 in 7020 ft
Cole Creek 0 in 7850 ft
Garver Creek 1 in 4250 ft
Brackett Creek 1 in 7320 ft

Earthquake Activity

City Distance Mag. Time & Date
No recent earthquake activity has been reported nearby.
Minimum magnitude displayed is 2.5.

Coastal Water Temperatures

Place Temperature
No Stations Reporting

Nearby Weather Stations